首页
METAR-TAF:

METAR-TAF

机场 :

Bartlesville, 奧克拉荷馬州, 美国

纬度: 36-46-06N, 经度: 096-01-34W, 海拔: 217米

当前天气观测

该预报发布于41分钟前的10:53 UTC
风速6节,风向
温度 25°C
湿度 65%
气压 1017 hPa
能見度: 16.1公里
天空无云

METAR: KBVO 221053Z AUTO 19006KT 10SM CLR 25/18 A3003 RMK AO2 SLP157 T02500178

时间: 06:34 (11:34 UTC)

预报

该预报发布于6小时和14分钟前的05:20 UTC
预报有效从22日的 06点(UTC)到 23日的 06点(UTC)
风速4节,风向
能見度: 10公里
少量云层高于5000英尺
散云层高于25000英尺
从 22日的 1400点(UTC)
风速12节,风向南转西南,有时为19节阵风
能見度: 10公里
散云层高于5000英尺
多云层高于25000英尺
从 23日的 0200点(UTC)
风速6节,风向南转西南
能見度: 10公里
散云层高于10000英尺
多云层高于25000英尺

TAF: KBVO 220520Z 2206/2306 18004KT P6SM FEW050 SCT250 FM221400 20012G19KT P6SM SCT050 BKN250 FM230200 20006KT P6SM SCT100 BKN250

超过4000个机场的气象观测和天气预报(METAR&TAF报告)。

可查询的气象台以黄色和红色小点在地图上表示。

将鼠标移到小点上方,可查看气象台名称。

然后点击查看天气观测和预报。

如需切换地图:点击带黑十字的绿色按钮放大地图;点击带横线的绿色按钮缩小地图;或者点击绿色箭头查看邻近地区的地图。


METAR-TAF: